Auke Bay, Alaska
Current Conditions -  °F | °C
As of 2:53 AM on Thursday 29 Jan 2015 (Local Time) from PAJN Reporting Station
Light Rain Light Rain  
Wind Chill: 30°   Ceiling: 3300
Heat Index: 35°   Visibility: 10mi
Dew Point: 33°   Wind: 6mph
Humidity: 92%   Direction: 220°SW
Pressure: 30.05"   Gusts: NA
Location:  58.38°N, 134.67°W
Report Text: PAJN 291153Z 22005KT 10SM -RA FEW010 BKN033 OVC042 02/01 A3005 RMK AO2 RAE04B34 SLP174 4/004 P0000 60001 70042 T00170006 10028 20017 53017
Loading
Personal Weather Stations






























Interactive Weather Map New forecast layout! Learn more

10-Day Weather Forecast

Advertisements
Track Severe Weather on mobile